Time;durP1;ratioP1;P1;durP2;ratioP2;P2;SDS_P1;SDS_P2;PMS_P1;PMS_P2;Temp;Humidity;BMP_temperature;BMP_pressure;BME280_temperature;BME280_humidity;BME280_pressure;Samples;Min_cycle;Max_cycle;Signal;HPM_P1;HPM_P2
2023/08/08 00:01:24;;;;;;;4.90;2.20;;;;;;;18.98;60.01;99983.73;106038;1258;63083;-62
2023/08/08 00:03:51;;;;;;;4.90;2.60;;;;;;;18.96;59.95;99984.54;106041;1261;62409;-64
2023/08/08 00:06:19;;;;;;;6.00;2.30;;;;;;;18.93;60.02;99987.95;106044;1259;63771;-65
2023/08/08 00:08:47;;;;;;;5.30;2.50;;;;;;;18.88;60.01;99992.43;105998;1258;59690;-69
2023/08/08 00:11:14;;;;;;;7.00;2.70;;;;;;;18.87;60.19;99989.48;106085;1261;59705;-71
2023/08/08 00:13:41;;;;;;;4.70;2.30;;;;;;;18.88;60.37;99987.40;105964;1260;71962;-68
2023/08/08 00:16:09;;;;;;;4.90;2.20;;;;;;;18.91;60.37;99992.27;106028;1261;60145;-71
2023/08/08 00:18:37;;;;;;;5.50;2.20;;;;;;;18.91;60.23;99997.71;105824;1261;63789;-67
2023/08/08 00:21:04;;;;;;;4.00;2.10;;;;;;;18.90;60.45;100000.50;105987;1257;59687;-74
2023/08/08 00:23:32;;;;;;;5.20;2.30;;;;;;;18.88;60.27;100002.33;106160;1257;61254;-70
2023/08/08 00:26:00;;;;;;;5.80;2.30;;;;;;;18.86;60.23;100004.23;106128;1257;74068;-66
2023/08/08 00:28:27;;;;;;;5.10;2.20;;;;;;;18.84;60.36;100005.04;106017;1260;61309;-63
2023/08/08 00:30:55;;;;;;;4.20;2.10;;;;;;;18.83;60.18;100006.75;105847;1257;64257;-65
2023/08/08 00:33:23;;;;;;;5.30;2.40;;;;;;;18.83;60.27;100009.70;105993;1258;59719;-63
2023/08/08 00:35:50;;;;;;;4.90;2.10;;;;;;;18.86;60.23;100010.83;105870;1257;59641;-65
2023/08/08 00:38:18;;;;;;;5.20;2.40;;;;;;;18.85;60.22;100006.25;105967;1257;62915;-64
2023/08/08 00:40:46;;;;;;;4.50;2.10;;;;;;;18.84;60.26;100008.20;105982;1260;60103;-63
2023/08/08 00:43:13;;;;;;;5.60;2.10;;;;;;;18.81;60.36;100012.98;106057;1258;63724;-64
2023/08/08 00:45:42;;;;;;;6.50;2.50;;;;;;;18.78;60.54;100012.52;106058;1258;59749;-64
2023/08/08 00:48:09;;;;;;;4.40;2.20;;;;;;;18.74;60.57;100010.27;105983;1257;59652;-65
2023/08/08 00:50:37;;;;;;;5.20;2.10;;;;;;;18.74;60.60;100010.44;105953;1257;65242;-65
2023/08/08 00:53:07;;;;;;;4.40;1.90;;;;;;;18.75;60.41;100010.28;106115;1257;63979;-64
2023/08/08 00:55:38;;;;;;;4.70;2.40;;;;;;;18.77;60.58;100009.30;104793;1257;62468;-65
2023/08/08 00:58:06;;;;;;;4.70;2.40;;;;;;;18.77;60.72;100005.05;105945;1257;59943;-66
2023/08/08 01:00:34;;;;;;;5.60;2.30;;;;;;;18.75;60.57;100003.89;106040;1261;59481;-65
2023/08/08 01:03:02;;;;;;;6.20;2.40;;;;;;;18.73;60.50;100003.38;106003;1257;64212;-66
2023/08/08 01:05:35;;;;;;;5.20;2.40;;;;;;;18.69;60.66;99999.80;106246;1257;63143;-65
2023/08/08 01:08:06;;;;;;;4.30;2.40;;;;;;;18.65;60.74;99999.55;105880;1257;72332;-65
2023/08/08 01:10:38;;;;;;;5.10;2.50;;;;;;;18.65;60.73;100004.17;105972;1257;60188;-65
2023/08/08 01:13:09;;;;;;;4.50;2.10;;;;;;;18.67;60.75;100004.19;105877;1261;59728;-62
2023/08/08 01:15:36;;;;;;;5.10;2.20;;;;;;;18.69;60.56;100006.92;107229;1257;66318;-66
2023/08/08 01:18:08;;;;;;;5.20;2.40;;;;;;;18.68;60.53;100007.73;105905;1258;61381;-63
2023/08/08 01:20:35;;;;;;;6.00;2.40;;;;;;;18.67;60.70;100005.09;105675;1257;63738;-67
2023/08/08 01:23:06;;;;;;;5.90;3.00;;;;;;;18.64;60.73;100008.53;105683;1263;59536;-64
2023/08/08 01:25:33;;;;;;;4.70;2.20;;;;;;;18.62;60.87;100013.80;105933;1256;59635;-63
2023/08/08 01:28:01;;;;;;;4.70;2.30;;;;;;;18.60;61.02;100014.30;105936;1256;64928;-65
2023/08/08 01:30:30;;;;;;;5.30;2.40;;;;;;;18.62;60.91;100015.15;105867;1258;62389;-63
2023/08/08 01:33:00;;;;;;;5.60;2.00;;;;;;;18.64;60.88;100014.33;104550;1260;62536;-64
2023/08/08 01:35:30;;;;;;;6.00;2.20;;;;;;;18.64;60.87;100013.91;104641;1264;60563;-65
2023/08/08 01:38:23;;;;;;;4.40;2.20;;;;;;;18.64;60.92;100020.48;105598;1262;60568;-64
2023/08/08 01:40:51;;;;;;;4.10;2.30;;;;;;;18.61;61.07;100022.45;104463;1257;63846;-63
2023/08/08 01:43:18;;;;;;;5.90;2.40;;;;;;;18.57;61.04;100023.59;104463;1257;61518;-63
2023/08/08 01:45:46;;;;;;;4.60;2.20;;;;;;;18.54;61.19;100023.48;104440;1257;63879;-64
2023/08/08 01:48:14;;;;;;;6.00;2.50;;;;;;;18.53;61.15;100026.06;108758;1256;60452;-64
2023/08/08 01:50:42;;;;;;;7.10;2.10;;;;;;;18.53;61.39;100028.85;107922;1257;59511;-63
2023/08/08 01:53:09;;;;;;;6.20;2.60;;;;;;;18.55;61.36;100031.70;105938;1257;67487;-62
2023/08/08 01:55:37;;;;;;;3.70;1.90;;;;;;;18.53;61.48;100036.40;105942;1258;60418;-63
2023/08/08 01:58:06;;;;;;;4.90;2.50;;;;;;;18.50;61.45;100040.25;104498;1257;62539;-64
2023/08/08 02:00:33;;;;;;;5.70;2.20;;;;;;;18.49;61.61;100040.42;104549;1260;60444;-68
2023/08/08 02:03:02;;;;;;;4.80;2.30;;;;;;;18.47;61.62;100036.02;105903;1257;60381;-69
2023/08/08 02:05:29;;;;;;;4.40;2.00;;;;;;;18.44;61.57;100039.10;105985;1260;63655;-67
2023/08/08 02:07:57;;;;;;;4.90;2.10;;;;;;;18.42;61.63;100041.85;105935;1257;61331;-67
2023/08/08 02:10:25;;;;;;;4.60;2.50;;;;;;;18.40;61.63;100044.85;106056;1257;62463;-68
2023/08/08 02:12:52;;;;;;;4.60;1.90;;;;;;;18.38;61.78;100050.00;106217;1257;60389;-68
2023/08/08 02:15:20;;;;;;;4.30;2.20;;;;;;;18.37;61.78;100054.08;106129;1257;60616;-70
2023/08/08 02:17:49;;;;;;;6.70;2.60;;;;;;;18.34;61.94;100059.68;106091;1258;65827;-68
2023/08/08 02:20:17;;;;;;;5.80;2.60;;;;;;;18.33;61.78;100061.25;106042;1258;61515;-70
2023/08/08 02:22:45;;;;;;;5.80;2.00;;;;;;;18.31;61.89;100062.45;107032;1257;64222;-69
2023/08/08 02:25:13;;;;;;;4.60;2.10;;;;;;;18.27;61.96;100064.12;106108;1256;60459;-69
2023/08/08 02:27:40;;;;;;;6.70;2.40;;;;;;;18.25;61.97;100070.80;105834;1262;60339;-69
2023/08/08 02:30:10;;;;;;;4.80;2.10;;;;;;;18.25;62.13;100074.30;106016;1260;64910;-70
2023/08/08 02:32:38;;;;;;;5.50;2.40;;;;;;;18.29;62.25;100079.34;106114;1258;63606;-69
2023/08/08 02:35:06;;;;;;;5.20;2.80;;;;;;;18.31;62.20;100083.39;105931;1257;62433;-70
2023/08/08 02:37:33;;;;;;;4.80;2.40;;;;;;;18.32;62.12;100083.45;107009;1256;60440;-70
2023/08/08 02:40:01;;;;;;;6.10;2.70;;;;;;;18.32;62.16;100081.64;106134;1259;60622;-71
2023/08/08 02:42:29;;;;;;;5.80;2.20;;;;;;;18.29;62.07;100079.27;107389;1260;63723;-69
2023/08/08 02:44:57;;;;;;;6.10;2.50;;;;;;;18.28;62.10;100080.13;105977;1257;60431;-67
2023/08/08 02:47:24;;;;;;;4.10;2.10;;;;;;;18.28;62.12;100079.46;106048;1257;63828;-69
2023/08/08 02:49:53;;;;;;;6.00;2.50;;;;;;;18.28;61.95;100083.21;106038;1261;60830;-69
2023/08/08 02:52:21;;;;;;;5.00;2.70;;;;;;;18.26;62.12;100082.50;105888;1256;60592;-69
2023/08/08 02:54:48;;;;;;;4.70;2.50;;;;;;;18.26;62.30;100083.44;106042;1257;65397;-69
2023/08/08 02:57:16;;;;;;;6.20;2.50;;;;;;;18.26;62.14;100090.77;106055;1257;60453;-69
2023/08/08 02:59:43;;;;;;;4.40;2.00;;;;;;;18.24;62.38;100084.42;106085;1260;73175;-71
2023/08/08 03:02:13;;;;;;;5.70;2.50;;;;;;;18.25;62.20;100081.22;106047;1256;60898;-67
2023/08/08 03:04:41;;;;;;;5.20;2.40;;;;;;;18.27;62.00;100079.44;106121;1257;61086;-68
2023/08/08 03:07:08;;;;;;;6.00;2.50;;;;;;;18.30;62.21;100077.12;105926;1257;66264;-70
2023/08/08 03:09:37;;;;;;;8.70;3.00;;;;;;;18.31;62.23;100078.04;105898;1257;61956;-70
2023/08/08 03:12:05;;;;;;;6.20;3.00;;;;;;;18.30;62.31;100082.40;106004;1256;62851;-70
2023/08/08 03:14:33;;;;;;;8.90;3.20;;;;;;;18.28;62.26;100082.45;105944;1257;60332;-70
2023/08/08 03:17:01;;;;;;;5.30;3.00;;;;;;;18.25;62.35;100075.69;106092;1257;60459;-70
2023/08/08 03:19:28;;;;;;;6.90;2.70;;;;;;;18.26;62.40;100071.52;106027;1263;64928;-72
2023/08/08 03:21:57;;;;;;;5.00;2.80;;;;;;;18.29;62.50;100077.19;106277;1260;60367;-72
2023/08/08 03:24:25;;;;;;;7.20;2.90;;;;;;;18.34;62.48;100086.60;106235;1257;62463;-70
2023/08/08 03:26:53;;;;;;;7.80;3.20;;;;;;;18.37;62.66;100087.27;106409;1257;60444;-71
2023/08/08 03:29:20;;;;;;;5.90;3.20;;;;;;;18.39;62.87;100096.42;106364;1256;59395;-72
2023/08/08 03:31:48;;;;;;;5.10;2.80;;;;;;;18.39;62.72;100100.56;106059;1259;72597;-70
2023/08/08 03:34:16;;;;;;;7.00;3.40;;;;;;;18.42;62.80;100106.13;106047;1257;61459;-66
2023/08/08 03:36:44;;;;;;;8.70;5.20;;;;;;;18.47;62.74;100109.95;105858;1262;66719;-67
2023/08/08 03:39:12;;;;;;;8.20;4.00;;;;;;;18.51;62.34;100106.58;105895;1255;60486;-68
2023/08/08 03:41:39;;;;;;;6.80;3.10;;;;;;;18.57;62.30;100106.75;105945;1262;59441;-69
2023/08/08 03:44:07;;;;;;;5.50;2.90;;;;;;;18.61;62.30;100109.14;105910;1257;63788;-70
2023/08/08 03:46:35;;;;;;;6.50;3.50;;;;;;;18.64;62.08;100114.98;106094;1257;62036;-70
2023/08/08 03:49:03;;;;;;;5.60;2.90;;;;;;;18.66;61.81;100124.05;105965;1257;62443;-73
2023/08/08 03:51:30;;;;;;;5.40;3.00;;;;;;;18.66;61.67;100132.52;105910;1256;60492;-72
2023/08/08 03:53:58;;;;;;;7.20;2.90;;;;;;;18.67;61.64;100137.43;105999;1256;63276;-70
2023/08/08 03:56:27;;;;;;;8.10;3.70;;;;;;;18.71;61.61;100143.95;105997;1257;64963;-71
2023/08/08 03:58:55;;;;;;;6.10;2.70;;;;;;;18.78;61.28;100149.95;105946;1259;60214;-67
2023/08/08 04:01:22;;;;;;;5.40;2.60;;;;;;;18.82;61.04;100153.79;105964;1257;63690;-68
2023/08/08 04:03:50;;;;;;;4.90;2.80;;;;;;;18.84;61.01;100153.42;105882;1256;60562;-67
2023/08/08 04:06:17;;;;;;;5.20;2.40;;;;;;;18.84;60.59;100157.68;106070;1257;60586;-65
2023/08/08 04:08:45;;;;;;;5.90;2.10;;;;;;;18.82;60.51;100161.81;105992;1256;64962;-71
2023/08/08 04:11:12;;;;;;;5.40;2.40;;;;;;;18.83;60.39;100161.14;105975;1260;61607;-73
2023/08/08 04:13:40;;;;;;;4.50;2.40;;;;;;;18.86;60.19;100167.92;105967;1260;62449;-70
2023/08/08 04:16:07;;;;;;;5.60;2.10;;;;;;;18.85;60.08;100171.40;106081;1258;60417;-70
2023/08/08 04:18:35;;;;;;;4.10;2.00;;;;;;;18.85;60.14;100174.16;106039;1257;60372;-67
2023/08/08 04:21:02;;;;;;;6.20;2.10;;;;;;;18.87;60.20;100178.25;106022;1259;65097;-69
2023/08/08 04:23:30;;;;;;;3.60;1.70;;;;;;;18.88;60.23;100183.31;105937;1261;61336;-65
2023/08/08 04:25:57;;;;;;;5.70;2.00;;;;;;;18.91;60.23;100185.64;105925;1260;62478;-64
2023/08/08 04:28:25;;;;;;;4.70;2.10;;;;;;;18.95;60.02;100191.03;105184;1262;60495;-66
2023/08/08 04:30:52;;;;;;;4.90;2.20;;;;;;;18.98;59.86;100192.59;106092;1257;60393;-70
2023/08/08 04:33:20;;;;;;;5.10;2.10;;;;;;;19.00;59.77;100195.58;105936;1257;65900;-67
2023/08/08 04:35:48;;;;;;;4.20;1.90;;;;;;;19.04;59.58;100193.26;106055;1257;61445;-71
2023/08/08 04:38:15;;;;;;;5.50;1.90;;;;;;;19.09;59.78;100201.00;105958;1257;74156;-71
2023/08/08 04:40:43;;;;;;;4.30;1.90;;;;;;;19.17;59.57;100204.60;106098;1257;60597;-71
2023/08/08 04:43:10;;;;;;;5.10;2.00;;;;;;;19.19;59.09;100206.96;105891;1257;58534;-70
2023/08/08 04:45:38;;;;;;;4.80;2.30;;;;;;;19.17;59.13;100208.83;105949;1257;64956;-69
2023/08/08 04:48:05;;;;;;;4.30;2.00;;;;;;;19.16;59.22;100213.08;106004;1257;60354;-66
2023/08/08 04:50:33;;;;;;;4.50;2.20;;;;;;;19.15;59.34;100213.65;105972;1257;62582;-69
2023/08/08 04:53:00;;;;;;;5.20;2.30;;;;;;;19.18;59.54;100215.09;105991;1256;60873;-67
2023/08/08 04:55:28;;;;;;;4.50;1.90;;;;;;;19.26;59.70;100213.61;105975;1256;60667;-68
2023/08/08 04:57:55;;;;;;;4.30;1.70;;;;;;;19.38;59.71;100212.00;106027;1257;64916;-67
2023/08/08 05:00:23;;;;;;;4.60;1.60;;;;;;;19.51;59.04;100210.69;106090;1256;61394;-64
2023/08/08 05:02:50;;;;;;;5.20;2.30;;;;;;;19.55;58.79;100210.53;106060;1263;64418;-63
2023/08/08 05:05:18;;;;;;;7.50;2.10;;;;;;;19.56;58.82;100209.56;105909;1256;60451;-66
2023/08/08 05:07:45;;;;;;;3.70;1.70;;;;;;;19.56;58.82;100210.19;105951;1256;60522;-64
2023/08/08 05:10:13;;;;;;;5.20;1.70;;;;;;;19.61;59.04;100216.06;105963;1257;65534;-69
2023/08/08 05:12:41;;;;;;;4.80;1.70;;;;;;;19.65;59.11;100222.57;106060;1257;60312;-61
2023/08/08 05:15:09;;;;;;;4.40;1.50;;;;;;;19.75;58.83;100228.79;106106;1256;64629;-65
2023/08/08 05:17:37;;;;;;;4.50;1.60;;;;;;;19.83;58.29;100227.55;106045;1257;60515;-64
2023/08/08 05:20:06;;;;;;;3.40;1.40;;;;;;;19.90;57.95;100226.27;104558;1255;60421;-65
2023/08/08 05:22:34;;;;;;;4.00;1.80;;;;;;;19.93;57.73;100229.04;105017;1261;64918;-66
2023/08/08 05:25:01;;;;;;;5.60;1.90;;;;;;;19.96;57.61;100228.15;106076;1257;61444;-65
2023/08/08 05:27:29;;;;;;;2.90;1.40;;;;;;;19.98;57.44;100227.02;106111;1260;62576;-63
2023/08/08 05:29:57;;;;;;;5.60;1.70;;;;;;;20.02;57.62;100230.47;106163;1256;60416;-68
2023/08/08 05:32:24;;;;;;;6.50;1.40;;;;;;;20.09;57.24;100233.80;106115;1256;60447;-68
2023/08/08 05:34:52;;;;;;;4.20;1.30;;;;;;;20.19;56.71;100231.69;106170;1257;66208;-69
2023/08/08 05:37:19;;;;;;;2.60;1.10;;;;;;;20.33;56.29;100232.92;106134;1257;61357;-62
2023/08/08 05:39:47;;;;;;;2.50;1.00;;;;;;;20.43;55.78;100232.95;106176;1258;63749;-68
2023/08/08 05:42:15;;;;;;;4.40;1.30;;;;;;;20.49;55.36;100236.45;106173;1256;60404;-65
2023/08/08 05:44:44;;;;;;;3.20;1.40;;;;;;;20.55;55.30;100231.98;106145;1256;60492;-68
2023/08/08 05:47:11;;;;;;;3.20;1.30;;;;;;;20.61;55.12;100233.89;106033;1255;63731;-68
2023/08/08 05:49:42;;;;;;;3.90;1.40;;;;;;;20.70;54.72;100237.73;106142;1260;60385;-70
2023/08/08 05:52:10;;;;;;;3.60;1.00;;;;;;;20.78;54.17;100234.61;106243;1258;66188;-72
2023/08/08 05:54:38;;;;;;;3.00;1.40;;;;;;;20.82;53.84;100234.14;106147;1258;60431;-73
2023/08/08 05:57:06;;;;;;;3.70;1.30;;;;;;;20.84;53.85;100232.59;106147;1256;60464;-70
2023/08/08 05:59:35;;;;;;;3.00;1.20;;;;;;;20.88;53.56;100238.14;106134;1256;64913;-73
2023/08/08 06:02:03;;;;;;;4.00;1.40;;;;;;;20.91;53.55;100239.35;106069;1256;60437;-74
2023/08/08 06:04:31;;;;;;;4.10;1.70;;;;;;;20.95;53.71;100239.27;106067;1260;62569;-77
2023/08/08 06:06:59;;;;;;;3.40;1.30;;;;;;;21.02;54.03;100241.27;106105;1259;59431;-73
2023/08/08 06:09:28;;;;;;;5.40;1.40;;;;;;;21.12;54.06;100241.89;106107;1261;60335;-74
2023/08/08 06:11:55;;;;;;;4.80;1.50;;;;;;;21.22;54.32;100239.23;105801;1257;65957;-59
2023/08/08 06:14:23;;;;;;;3.40;1.20;;;;;;;21.29;54.47;100238.70;104768;1258;61608;-60
2023/08/08 06:16:51;;;;;;;2.60;1.00;;;;;;;21.36;53.73;100238.13;104365;1261;65319;-60
2023/08/08 06:19:18;;;;;;;3.00;1.30;;;;;;;21.40;53.02;100242.34;104582;1259;60562;-59
2023/08/08 06:21:46;;;;;;;4.10;1.50;;;;;;;21.42;53.14;100240.30;104513;1260;60461;-61
2023/08/08 06:24:14;;;;;;;3.30;1.20;;;;;;;21.46;53.15;100236.01;105167;1256;63953;-60
2023/08/08 06:26:42;;;;;;;4.20;1.60;;;;;;;21.50;53.12;100232.55;104312;1258;60455;-60
2023/08/08 06:29:10;;;;;;;3.90;1.40;;;;;;;21.55;53.15;100232.90;104323;1256;63765;-60
2023/08/08 06:31:38;;;;;;;3.50;1.70;;;;;;;21.57;52.79;100235.26;104900;1261;60508;-61
2023/08/08 06:34:09;;;;;;;4.60;1.80;;;;;;;21.58;52.63;100237.52;105951;1257;60472;-59
2023/08/08 06:36:37;;;;;;;3.80;1.90;;;;;;;21.59;53.14;100236.50;104539;1261;64933;-61
2023/08/08 06:39:05;;;;;;;6.70;2.20;;;;;;;21.67;53.34;100240.25;105184;1260;60616;-59
2023/08/08 06:41:33;;;;;;;3.60;1.30;;;;;;;21.84;53.13;100240.65;104428;1257;63829;-59
2023/08/08 06:44:01;;;;;;;3.90;1.60;;;;;;;21.98;52.37;100237.65;104692;1258;60514;-61
2023/08/08 06:46:28;;;;;;;4.60;1.80;;;;;;;22.04;51.89;100237.24;106063;1257;60393;-60
2023/08/08 06:48:58;;;;;;;5.90;2.00;;;;;;;22.07;52.15;100242.69;105454;1260;64939;-62
2023/08/08 06:51:26;;;;;;;3.80;1.90;;;;;;;22.15;52.62;100247.95;105986;1261;60256;-62
2023/08/08 06:53:54;;;;;;;6.80;3.90;;;;;;;22.23;52.46;100254.70;105873;1260;64320;-61
2023/08/08 06:56:21;;;;;;;5.80;2.40;;;;;;;22.31;51.94;100257.38;104362;1257;60460;-59
2023/08/08 06:58:49;;;;;;;4.40;1.90;;;;;;;22.35;51.55;100259.45;104461;1261;60446;-62
2023/08/08 07:01:17;;;;;;;3.80;1.40;;;;;;;22.36;50.92;100256.31;104283;1257;63665;-62
2023/08/08 07:03:46;;;;;;;3.40;1.60;;;;;;;22.39;51.26;100257.66;104509;1256;61779;-61
2023/08/08 07:06:17;;;;;;;4.00;1.70;;;;;;;22.49;51.37;100259.86;108746;1256;62493;-64
2023/08/08 07:08:45;;;;;;;5.40;1.80;;;;;;;22.58;50.95;100262.38;108756;1256;58478;-64
2023/08/08 07:11:12;;;;;;;5.20;1.70;;;;;;;22.64;50.53;100258.41;108699;1255;60101;-62
2023/08/08 07:13:40;;;;;;;4.10;1.50;;;;;;;22.72;50.84;100264.24;108639;1256;63763;-66
2023/08/08 07:16:08;;;;;;;4.10;1.90;;;;;;;22.79;50.53;100262.81;108642;1257;61349;-58
2023/08/08 07:18:37;;;;;;;3.20;1.40;;;;;;;22.83;50.27;100263.42;108690;1257;62481;-59
2023/08/08 07:21:06;;;;;;;4.30;1.50;;;;;;;22.88;49.53;100264.29;108643;1256;59512;-66
2023/08/08 07:23:34;;;;;;;6.50;1.40;;;;;;;22.92;48.19;100264.74;108543;1255;59053;-63
2023/08/08 07:26:02;;;;;;;7.90;1.70;;;;;;;22.98;47.46;100262.77;108660;1256;65082;-59
2023/08/08 07:28:29;;;;;;;5.60;1.60;;;;;;;23.02;46.85;100267.16;108597;1256;60127;-61
2023/08/08 07:30:57;;;;;;;5.80;1.00;;;;;;;23.06;47.14;100269.38;105582;1257;64432;-57
2023/08/08 07:33:24;;;;;;;5.90;1.50;;;;;;;23.09;47.37;100271.08;104384;1257;60615;-64
2023/08/08 07:35:52;;;;;;;3.30;1.10;;;;;;;23.12;47.06;100266.38;104574;1260;60445;-61
2023/08/08 07:38:20;;;;;;;4.50;1.40;;;;;;;23.16;46.75;100260.63;106119;1257;64244;-61
2023/08/08 07:40:48;;;;;;;3.50;1.30;;;;;;;23.21;47.01;100254.99;104653;1259;62960;-63
2023/08/08 07:43:16;;;;;;;3.40;1.30;;;;;;;23.25;46.31;100262.02;105990;1257;67000;-60
2023/08/08 07:45:43;;;;;;;2.80;1.10;;;;;;;23.26;46.43;100258.74;104719;1256;60382;-64
2023/08/08 07:48:12;;;;;;;3.60;1.10;;;;;;;23.30;46.66;100262.38;106009;1261;60365;-64
2023/08/08 07:50:39;;;;;;;2.80;0.90;;;;;;;23.38;46.28;100263.27;106066;1255;64893;-60
2023/08/08 07:53:07;;;;;;;2.80;1.00;;;;;;;23.44;45.71;100254.95;105359;1260;61473;-64
2023/08/08 07:55:34;;;;;;;4.20;1.40;;;;;;;23.49;46.11;100257.21;104901;1257;62467;-63
2023/08/08 07:58:02;;;;;;;3.80;1.20;;;;;;;23.57;45.72;100265.48;105763;1259;60966;-60
2023/08/08 08:00:30;;;;;;;3.40;1.20;;;;;;;23.58;45.34;100264.99;104520;1257;60434;-61
2023/08/08 08:02:58;;;;;;;3.80;1.30;;;;;;;23.53;45.48;100262.77;104579;1257;63766;-62
2023/08/08 08:05:26;;;;;;;3.10;1.20;;;;;;;23.51;45.81;100260.72;108624;1256;60092;-59
2023/08/08 08:07:53;;;;;;;3.40;1.30;;;;;;;23.56;46.02;100264.05;105240;1256;62457;-59
2023/08/08 08:10:21;;;;;;;2.90;1.10;;;;;;;23.63;45.38;100264.31;104514;1260;60798;-58
2023/08/08 08:12:49;;;;;;;7.30;1.60;;;;;;;23.69;44.43;100270.45;107028;1256;59331;-61
2023/08/08 08:15:17;;;;;;;3.40;1.30;;;;;;;23.69;43.43;100265.38;104432;1257;64927;-59
2023/08/08 08:17:44;;;;;;;7.20;1.80;;;;;;;23.70;43.53;100257.92;105028;1257;60505;-58
2023/08/08 08:20:12;;;;;;;4.20;1.10;;;;;;;23.72;43.58;100256.39;105018;1255;62437;-58
2023/08/08 08:22:40;;;;;;;4.00;1.50;;;;;;;23.73;44.08;100255.60;108058;1259;60482;-59
2023/08/08 08:25:09;;;;;;;3.80;1.40;;;;;;;23.74;44.70;100255.93;106458;1256;61775;-58
2023/08/08 08:27:37;;;;;;;3.30;1.40;;;;;;;23.80;44.34;100254.80;107589;1256;64925;-58
2023/08/08 08:30:06;;;;;;;3.20;1.20;;;;;;;23.86;44.35;100246.86;104552;1256;63984;-59
2023/08/08 08:32:34;;;;;;;6.10;1.70;;;;;;;23.95;44.48;100242.73;104492;1257;62491;-57
2023/08/08 08:35:03;;;;;;;4.00;1.30;;;;;;;24.05;45.17;100245.44;108670;1257;58546;-58
2023/08/08 08:37:31;;;;;;;7.00;1.60;;;;;;;24.16;44.89;100250.88;105295;1259;60569;-59
2023/08/08 08:39:59;;;;;;;4.20;1.20;;;;;;;24.26;43.87;100247.89;104519;1257;65033;-59
2023/08/08 08:42:27;;;;;;;4.30;1.60;;;;;;;24.35;43.96;100253.04;104895;1260;60458;-59
2023/08/08 08:44:57;;;;;;;3.90;1.90;;;;;;;24.43;44.30;100249.48;105010;1258;63728;-60
2023/08/08 08:47:25;;;;;;;3.70;1.40;;;;;;;24.53;44.44;100249.98;105006;1256;60773;-60
2023/08/08 08:49:53;;;;;;;4.30;1.50;;;;;;;24.66;44.07;100241.02;105353;1257;61084;-56
2023/08/08 08:52:22;;;;;;;4.40;1.40;;;;;;;24.76;43.58;100237.41;105266;1256;63634;-59
2023/08/08 08:54:51;;;;;;;3.80;1.30;;;;;;;24.85;43.44;100242.39;104575;1256;60433;-62
2023/08/08 08:57:19;;;;;;;4.20;1.40;;;;;;;25.00;43.50;100245.06;104531;1257;64752;-61
2023/08/08 08:59:47;;;;;;;2.90;1.20;;;;;;;25.17;42.68;100242.30;105500;1257;60569;-57
2023/08/08 09:02:14;;;;;;;3.80;0.70;;;;;;;25.25;41.70;100234.20;104589;1257;61365;-60
2023/08/08 09:04:42;;;;;;;2.30;0.70;;;;;;;25.29;40.67;100230.02;104627;1260;65337;-56
2023/08/08 09:07:10;;;;;;;1.90;0.70;;;;;;;25.36;40.37;100241.01;104469;1256;60819;-59
2023/08/08 09:09:38;;;;;;;2.50;1.00;;;;;;;25.38;38.92;100233.96;106285;1256;64220;-63
2023/08/08 09:12:06;;;;;;;1.80;0.70;;;;;;;25.40;39.60;100237.69;105341;1257;60539;-60
2023/08/08 09:14:34;;;;;;;4.80;0.70;;;;;;;25.41;39.48;100238.88;104780;1259;60457;-60
2023/08/08 09:17:02;;;;;;;3.40;0.60;;;;;;;25.33;39.28;100239.05;108456;1257;63729;-58
2023/08/08 09:19:30;;;;;;;2.10;0.70;;;;;;;25.26;39.10;100239.92;106738;1256;61815;-60
2023/08/08 09:21:58;;;;;;;2.80;0.80;;;;;;;25.27;39.86;100242.84;104524;1257;62901;-58
2023/08/08 09:24:26;;;;;;;2.80;0.70;;;;;;;25.30;39.34;100240.99;104464;1256;61618;-59
2023/08/08 09:26:54;;;;;;;2.40;0.70;;;;;;;25.28;39.55;100237.91;104460;1261;61684;-64
2023/08/08 09:29:22;;;;;;;2.00;0.70;;;;;;;25.25;39.58;100236.54;104346;1262;463562;-60
2023/08/08 09:43:48;;;;;;;;;;;;;;;25.37;38.84;100248.35;102393;1286;604389;-60
2023/08/08 09:46:16;;;;;;;2.20;0.80;;;;;;;25.88;37.52;100251.91;106953;1270;191444;-62
2023/08/08 09:48:44;;;;;;;1.90;0.70;;;;;;;25.89;37.43;100256.67;107746;1266;59327;-61
2023/08/08 09:51:12;;;;;;;2.60;0.80;;;;;;;25.84;37.81;100250.52;103887;1266;65516;-61
2023/08/08 09:53:40;;;;;;;1.50;0.60;;;;;;;25.81;37.45;100245.74;104048;1266;62402;-61
2023/08/08 09:56:08;;;;;;;1.40;0.60;;;;;;;25.81;37.53;100241.11;104937;1269;66320;-65
2023/08/08 09:58:36;;;;;;;2.40;0.70;;;;;;;25.82;37.14;100248.63;103945;1265;60581;-63
2023/08/08 10:01:04;;;;;;;2.10;0.50;;;;;;;25.82;36.96;100254.27;103881;1264;59275;-54
2023/08/08 10:03:33;;;;;;;1.40;0.60;;;;;;;25.77;37.04;100258.52;103849;1267;63331;-56
2023/08/08 10:06:01;;;;;;;2.20;0.70;;;;;;;25.74;37.43;100265.92;106637;1267;64363;-54
2023/08/08 10:08:29;;;;;;;2.30;0.80;;;;;;;25.72;37.41;100266.30;103698;1270;63774;-50
2023/08/08 10:10:57;;;;;;;1.80;0.70;;;;;;;25.66;37.38;100266.23;103544;1264;62244;-53
2023/08/08 10:13:25;;;;;;;2.10;0.80;;;;;;;25.64;38.12;100262.66;103833;1266;59554;-53
2023/08/08 10:15:54;;;;;;;1.90;0.60;;;;;;;25.67;38.38;100260.55;106583;1267;62914;-54
2023/08/08 10:18:22;;;;;;;2.40;0.90;;;;;;;25.68;38.34;100261.40;104063;1263;61619;-51
2023/08/08 10:20:50;;;;;;;1.60;0.60;;;;;;;25.65;38.05;100262.48;105683;1262;63637;-57
2023/08/08 10:23:19;;;;;;;4.90;0.90;;;;;;;25.62;38.19;100259.11;104151;1260;59782;-56
2023/08/08 10:25:48;;;;;;;2.80;0.90;;;;;;;25.62;38.01;100258.27;104085;1263;59577;-52
2023/08/08 10:28:18;;;;;;;2.90;0.90;;;;;;;25.62;38.53;100259.28;104018;1266;66182;-53
2023/08/08 10:30:55;;;;;;;1.90;0.70;;;;;;;25.66;38.81;100260.77;108421;1260;62313;-54
2023/08/08 10:33:27;;;;;;;2.60;0.90;;;;;;;25.68;37.70;100264.68;108325;1260;62458;-54
2023/08/08 10:36:04;;;;;;;2.40;0.90;;;;;;;25.68;37.55;100260.59;108392;1260;58621;-50
2023/08/08 10:38:41;;;;;;;2.80;0.70;;;;;;;25.71;37.96;100256.48;107292;1263;61937;-50
2023/08/08 10:41:11;;;;;;;2.90;0.90;;;;;;;25.78;38.61;100249.44;104134;1261;63067;-55
2023/08/08 10:43:46;;;;;;;2.30;0.90;;;;;;;25.83;38.61;100252.31;104237;1266;60148;-51
2023/08/08 10:46:13;;;;;;;3.10;1.00;;;;;;;25.84;38.30;100255.88;104476;1266;62502;-52
2023/08/08 10:48:52;;;;;;;2.10;0.60;;;;;;;25.80;37.55;100251.39;104021;1262;60046;-56
2023/08/08 10:51:20;;;;;;;1.80;0.70;;;;;;;25.74;37.10;100244.71;104067;1263;59662;-55
2023/08/08 10:53:51;;;;;;;1.80;0.70;;;;;;;25.72;36.68;100243.41;108413;1261;62863;-56
2023/08/08 10:56:19;;;;;;;2.00;0.60;;;;;;;25.70;36.96;100248.61;108360;1263;64042;-54
2023/08/08 10:58:48;;;;;;;2.20;0.70;;;;;;;25.68;37.33;100249.69;108357;1262;71823;-54
2023/08/08 11:01:16;;;;;;;2.70;0.80;;;;;;;25.66;37.52;100254.54;108297;1263;59256;-56
2023/08/08 11:03:44;;;;;;;2.30;0.80;;;;;;;25.69;37.54;100253.80;108383;1262;59928;-58
2023/08/08 11:06:12;;;;;;;1.70;0.70;;;;;;;25.76;37.84;100255.63;108265;1263;64061;-58
2023/08/08 11:08:40;;;;;;;2.40;0.80;;;;;;;25.85;37.68;100253.19;108592;1263;61355;-55
2023/08/08 11:11:07;;;;;;;2.20;0.80;;;;;;;25.95;37.74;100263.61;106569;1264;62455;-53
2023/08/08 11:13:35;;;;;;;2.30;0.70;;;;;;;26.05;37.45;100261.10;104145;1269;59972;-58
2023/08/08 11:16:03;;;;;;;2.30;0.80;;;;;;;26.16;37.72;100262.24;104499;1257;59775;-63
2023/08/08 11:18:31;;;;;;;3.20;1.10;;;;;;;26.25;37.68;100267.62;104459;1257;64101;-57
2023/08/08 11:20:59;;;;;;;2.20;0.80;;;;;;;26.28;36.74;100266.09;104620;1257;60128;-60
2023/08/08 11:23:46;;;;;;;1.70;0.60;;;;;;;26.24;36.46;100264.89;104823;1257;62520;-56
2023/08/08 11:26:16;;;;;;;3.20;1.10;;;;;;;26.18;36.85;100265.58;108670;1257;57563;-61
2023/08/08 11:28:53;;;;;;;2.50;0.90;;;;;;;26.11;37.19;100265.74;104973;1264;62097;-59
2023/08/08 11:31:21;;;;;;;2.60;0.80;;;;;;;26.07;37.03;100262.27;105401;1262;65380;-54
2023/08/08 11:33:49;;;;;;;2.30;0.80;;;;;;;26.02;36.97;100259.11;104530;1257;61302;-56